createdAt,value
2023-05-23T00:00:52.105Z,20.10
2023-05-23T00:03:22.956Z,20.00
2023-05-23T00:05:50.454Z,20.00
2023-05-23T00:08:17.577Z,20.10
2023-05-23T00:10:44.883Z,20.10
2023-05-23T00:13:13.195Z,20.10
2023-05-23T00:15:41.863Z,20.10
2023-05-23T00:18:09.363Z,20.10
2023-05-23T00:20:37.083Z,20.10
2023-05-23T00:23:04.490Z,20.20
2023-05-23T00:25:34.324Z,20.20
2023-05-23T00:28:01.329Z,20.20
2023-05-23T00:30:29.973Z,20.30
2023-05-23T00:32:56.751Z,20.30
2023-05-23T00:35:23.917Z,20.30
2023-05-23T00:37:51.974Z,20.30
2023-05-23T00:40:19.117Z,20.20
2023-05-23T00:42:46.287Z,20.10
2023-05-23T00:45:13.158Z,20.00
2023-05-23T00:47:41.119Z,20.00
2023-05-23T00:50:08.824Z,20.00
2023-05-23T00:52:35.969Z,20.00
2023-05-23T00:55:02.922Z,20.00
2023-05-23T00:57:29.727Z,20.00
2023-05-23T00:59:56.742Z,20.00
2023-05-23T01:02:23.908Z,20.00
2023-05-23T01:04:54.625Z,20.00
2023-05-23T01:07:22.292Z,20.00
2023-05-23T01:09:49.763Z,20.00
2023-05-23T01:12:29.210Z,20.10
2023-05-23T01:15:02.320Z,20.10
2023-05-23T01:17:42.287Z,20.10
2023-05-23T01:20:13.048Z,20.10
2023-05-23T01:22:55.482Z,20.10
2023-05-23T01:25:40.114Z,20.10
2023-05-23T01:28:08.677Z,20.10
2023-05-23T01:30:37.333Z,20.10
2023-05-23T01:33:05.026Z,20.10
2023-05-23T01:35:31.962Z,20.10
2023-05-23T01:37:58.852Z,20.00
2023-05-23T01:40:26.421Z,20.00
2023-05-23T01:42:55.251Z,20.00
2023-05-23T01:45:22.206Z,20.10
2023-05-23T01:47:51.364Z,20.20
2023-05-23T01:50:18.510Z,20.30
2023-05-23T01:52:46.904Z,20.30
2023-05-23T01:55:15.914Z,20.30
2023-05-23T01:57:44.239Z,20.30
2023-05-23T02:00:12.447Z,20.30
2023-05-23T02:02:39.660Z,20.30
2023-05-23T02:05:06.652Z,20.40
2023-05-23T02:07:33.449Z,20.40
2023-05-23T02:10:00.374Z,20.40
2023-05-23T02:12:27.172Z,20.30
2023-05-23T02:14:55.039Z,20.30
2023-05-23T02:17:22.391Z,20.30
2023-05-23T02:19:49.255Z,20.30
2023-05-23T02:22:16.102Z,20.30
2023-05-23T02:24:43.080Z,20.20
2023-05-23T02:27:09.848Z,20.20
2023-05-23T02:29:36.587Z,20.10
2023-05-23T02:32:03.360Z,20.10
2023-05-23T02:34:30.166Z,20.10
2023-05-23T02:36:57.051Z,20.00
2023-05-23T02:39:23.893Z,20.00
2023-05-23T02:41:50.785Z,20.00
2023-05-23T02:44:19.717Z,20.00
2023-05-23T02:46:46.851Z,20.00
2023-05-23T02:49:13.831Z,20.10
2023-05-23T02:51:40.825Z,20.10
2023-05-23T02:54:07.680Z,20.00
2023-05-23T02:56:34.687Z,20.00
2023-05-23T02:59:01.484Z,20.00
2023-05-23T03:01:28.444Z,20.00
2023-05-23T03:03:55.711Z,20.00
2023-05-23T03:06:22.886Z,19.90
2023-05-23T03:08:49.822Z,19.90
2023-05-23T03:11:16.634Z,19.90
2023-05-23T03:13:43.387Z,19.90
2023-05-23T03:16:11.998Z,19.90
2023-05-23T03:18:41.756Z,19.90
2023-05-23T03:21:09.652Z,19.90
2023-05-23T03:23:36.786Z,19.90
2023-05-23T03:26:04.059Z,19.90
2023-05-23T03:28:33.835Z,19.80
2023-05-23T03:31:00.820Z,19.80
2023-05-23T03:33:27.657Z,19.90
2023-05-23T03:35:54.478Z,19.80
2023-05-23T03:38:21.313Z,19.80
2023-05-23T03:40:48.060Z,19.70
2023-05-23T03:43:14.861Z,19.70
2023-05-23T03:45:42.120Z,19.70
2023-05-23T03:48:09.092Z,19.70
2023-05-23T03:50:36.478Z,19.70
2023-05-23T03:53:03.510Z,19.70
2023-05-23T03:55:32.579Z,19.60
2023-05-23T03:57:59.361Z,19.70
2023-05-23T04:00:27.164Z,19.70
2023-05-23T04:02:54.101Z,19.60
2023-05-23T04:05:21.623Z,19.70
2023-05-23T04:07:49.164Z,19.60
2023-05-23T04:10:16.419Z,19.60
2023-05-23T04:12:43.677Z,19.70
2023-05-23T04:15:11.447Z,19.60
2023-05-23T04:17:39.082Z,19.60
2023-05-23T04:20:09.792Z,19.60
2023-05-23T04:22:37.158Z,19.50
2023-05-23T04:25:04.344Z,19.50
2023-05-23T04:27:31.149Z,19.60
2023-05-23T04:29:58.373Z,19.60
2023-05-23T04:32:25.463Z,19.50
2023-05-23T04:34:52.342Z,19.60
2023-05-23T04:37:26.210Z,19.60
2023-05-23T04:39:53.553Z,19.60
2023-05-23T04:42:24.688Z,19.60
2023-05-23T04:44:52.838Z,19.70
2023-05-23T04:47:19.726Z,19.70
2023-05-23T04:49:46.620Z,19.70
2023-05-23T04:52:13.502Z,19.70
2023-05-23T04:54:44.809Z,19.70
2023-05-23T04:57:12.491Z,19.70
2023-05-23T04:59:39.549Z,19.70
2023-05-23T05:02:06.665Z,19.70
2023-05-23T05:04:33.468Z,19.70
2023-05-23T05:07:00.719Z,19.70
2023-05-23T05:09:27.527Z,19.70
2023-05-23T05:11:54.508Z,19.70
2023-05-23T05:14:21.451Z,19.70
2023-05-23T05:16:50.296Z,19.70
2023-05-23T05:19:17.358Z,19.70
2023-05-23T05:21:44.429Z,19.70
2023-05-23T05:24:11.229Z,19.70
2023-05-23T05:26:38.042Z,19.70
2023-05-23T05:29:04.920Z,19.70
2023-05-23T05:31:32.943Z,19.70
2023-05-23T05:33:59.889Z,19.70
2023-05-23T05:36:26.773Z,19.70
2023-05-23T05:38:53.764Z,19.80
2023-05-23T05:41:20.595Z,19.80
2023-05-23T05:43:47.445Z,19.80
2023-05-23T05:46:14.485Z,19.80
2023-05-23T05:48:41.465Z,19.80
2023-05-23T05:51:08.269Z,19.80
2023-05-23T05:53:35.048Z,19.80
2023-05-23T05:56:02.478Z,19.80
2023-05-23T05:58:29.370Z,19.90
2023-05-23T06:00:56.350Z,19.90
2023-05-23T06:03:24.602Z,19.80
2023-05-23T06:05:51.577Z,19.80
2023-05-23T06:08:18.425Z,19.80
2023-05-23T06:10:45.299Z,19.90
2023-05-23T06:13:12.228Z,19.90
2023-05-23T06:15:42.067Z,20.00
2023-05-23T06:18:08.989Z,20.00
2023-05-23T06:20:35.851Z,20.10
2023-05-23T06:23:05.547Z,20.10
2023-05-23T06:25:32.652Z,20.10
2023-05-23T06:27:59.808Z,20.10
2023-05-23T06:30:26.824Z,20.10
2023-05-23T06:32:53.658Z,20.10
2023-05-23T06:35:20.566Z,20.10
2023-05-23T06:37:48.447Z,20.10
2023-05-23T06:40:15.271Z,20.10
2023-05-23T06:42:42.181Z,20.10
2023-05-23T06:45:09.585Z,20.20
2023-05-23T06:47:36.409Z,20.20
2023-05-23T06:50:04.156Z,20.20
2023-05-23T06:52:30.906Z,20.20
2023-05-23T06:54:57.680Z,20.20
2023-05-23T06:57:24.501Z,20.30
2023-05-23T06:59:51.255Z,20.30
2023-05-23T07:02:18.062Z,20.40
2023-05-23T07:04:44.976Z,20.50
2023-05-23T07:07:11.894Z,20.50
2023-05-23T07:09:39.348Z,20.50
2023-05-23T07:12:06.833Z,20.50
2023-05-23T07:14:35.809Z,20.60
2023-05-23T07:17:02.626Z,20.60
2023-05-23T07:19:29.660Z,20.60
2023-05-23T07:21:56.740Z,20.60
2023-05-23T07:24:25.166Z,20.60
2023-05-23T07:26:54.477Z,20.70
2023-05-23T07:29:21.321Z,20.70
2023-05-23T07:31:48.137Z,20.70
2023-05-23T07:34:14.989Z,20.70
2023-05-23T07:36:42.495Z,20.70
2023-05-23T07:39:09.380Z,20.80
2023-05-23T07:41:36.389Z,20.80
2023-05-23T07:44:03.248Z,20.80
2023-05-23T07:46:30.187Z,20.80
2023-05-23T07:48:57.172Z,20.80
2023-05-23T07:51:24.148Z,20.80
2023-05-23T07:53:50.980Z,20.80
2023-05-23T07:56:18.533Z,20.80
2023-05-23T07:58:45.339Z,20.80
2023-05-23T08:01:12.098Z,20.80
2023-05-23T08:03:39.109Z,20.80
2023-05-23T08:06:07.513Z,20.90
2023-05-23T08:08:34.460Z,20.80
2023-05-23T08:11:01.364Z,20.90
2023-05-23T08:13:28.513Z,20.90
2023-05-23T08:15:55.402Z,20.90
2023-05-23T08:18:22.399Z,20.90
2023-05-23T08:20:49.394Z,20.90
2023-05-23T08:23:18.070Z,20.90
2023-05-23T08:25:45.111Z,20.90
2023-05-23T08:28:11.894Z,20.90
2023-05-23T08:30:38.930Z,20.90
2023-05-23T08:33:07.396Z,20.90
2023-05-23T08:35:37.376Z,20.90
2023-05-23T08:38:07.875Z,21.00
2023-05-23T08:40:36.348Z,20.90
2023-05-23T08:43:03.418Z,21.00
2023-05-23T08:45:31.175Z,21.00
2023-05-23T08:48:00.647Z,21.00
2023-05-23T08:50:28.692Z,21.00
2023-05-23T08:52:56.978Z,21.00
2023-05-23T08:55:28.172Z,20.90
2023-05-23T08:57:55.347Z,20.90
2023-05-23T09:00:23.522Z,20.90
2023-05-23T09:02:50.521Z,21.00
2023-05-23T09:05:17.545Z,20.90
2023-05-23T09:07:48.064Z,21.00
2023-05-23T09:10:17.102Z,21.00
2023-05-23T09:12:44.023Z,21.00
2023-05-23T09:15:11.482Z,20.90
2023-05-23T09:17:39.253Z,21.00
2023-05-23T09:20:14.320Z,21.00
2023-05-23T09:22:41.524Z,21.00
2023-05-23T09:25:08.448Z,21.00
2023-05-23T09:27:35.590Z,21.00
2023-05-23T09:30:10.108Z,21.00
2023-05-23T09:32:37.099Z,21.00
2023-05-23T09:35:04.806Z,21.00
2023-05-23T09:37:35.885Z,21.00
2023-05-23T09:40:06.841Z,21.00
2023-05-23T09:42:36.805Z,21.20
2023-05-23T09:45:04.919Z,21.30
2023-05-23T09:47:32.508Z,21.50
2023-05-23T09:49:59.363Z,21.70
2023-05-23T09:52:26.377Z,21.90
2023-05-23T09:54:54.204Z,21.90
2023-05-23T09:57:22.448Z,21.80
2023-05-23T09:59:53.327Z,21.90
2023-05-23T10:02:40.209Z,22.00
2023-05-23T10:05:09.030Z,22.00
2023-05-23T10:07:36.110Z,22.00
2023-05-23T10:10:04.216Z,21.90
2023-05-23T10:12:37.279Z,21.90
2023-05-23T10:15:05.300Z,22.00
2023-05-23T10:17:41.368Z,22.10
2023-05-23T10:20:12.650Z,22.10
2023-05-23T10:22:40.099Z,22.10
2023-05-23T10:25:08.619Z,22.20
2023-05-23T10:27:35.761Z,22.10
2023-05-23T10:30:02.801Z,22.10
2023-05-23T10:32:30.264Z,22.00
2023-05-23T10:35:20.526Z,22.10
2023-05-23T10:37:47.375Z,22.20
2023-05-23T10:40:32.873Z,22.20
2023-05-23T10:43:02.936Z,22.00
2023-05-23T10:45:29.920Z,22.10
2023-05-23T10:47:57.122Z,22.20
2023-05-23T10:50:33.986Z,22.20
2023-05-23T10:53:02.319Z,22.20
2023-05-23T10:55:36.741Z,22.20
2023-05-23T10:58:11.009Z,22.10
2023-05-23T11:00:38.268Z,22.20
2023-05-23T11:03:10.106Z,22.20
2023-05-23T11:05:43.561Z,22.20
2023-05-23T11:08:14.381Z,22.30
2023-05-23T11:10:53.443Z,22.30
2023-05-23T11:13:21.701Z,22.50
2023-05-23T11:15:48.852Z,22.40
2023-05-23T11:18:27.897Z,22.40
2023-05-23T11:20:55.343Z,22.30
2023-05-23T11:23:22.940Z,22.30
2023-05-23T11:25:50.892Z,22.40
2023-05-23T11:28:17.991Z,22.20
2023-05-23T11:30:47.521Z,22.30
2023-05-23T11:33:15.339Z,22.40
2023-05-23T11:35:42.227Z,22.50
2023-05-23T11:38:09.498Z,22.40
2023-05-23T11:40:36.646Z,22.30
2023-05-23T11:43:05.205Z,22.20
2023-05-23T11:45:32.458Z,22.20
2023-05-23T11:48:04.860Z,22.20
2023-05-23T11:50:31.734Z,22.50
2023-05-23T11:52:59.899Z,22.50
2023-05-23T11:55:27.107Z,22.70
2023-05-23T11:57:55.983Z,22.70
2023-05-23T12:00:22.993Z,22.70
2023-05-23T12:02:50.132Z,22.70
2023-05-23T12:05:17.345Z,22.60
2023-05-23T12:07:48.104Z,22.40
2023-05-23T12:10:18.160Z,22.50
2023-05-23T12:12:45.193Z,22.60
2023-05-23T12:15:12.880Z,22.70
2023-05-23T12:17:44.265Z,22.60
2023-05-23T12:20:11.681Z,22.40
2023-05-23T12:22:38.585Z,22.60
2023-05-23T12:25:09.028Z,22.70
2023-05-23T12:27:35.966Z,22.80
2023-05-23T12:30:09.584Z,22.90
2023-05-23T12:32:40.548Z,22.90
2023-05-23T12:35:08.767Z,22.90
2023-05-23T12:37:38.926Z,22.70
2023-05-23T12:40:18.912Z,22.60
2023-05-23T12:42:54.698Z,22.70
2023-05-23T12:45:30.836Z,22.70
2023-05-23T12:47:57.737Z,22.60
2023-05-23T12:50:24.698Z,22.50
2023-05-23T12:52:52.316Z,22.40
2023-05-23T12:55:19.276Z,22.50
2023-05-23T12:57:46.100Z,22.60
2023-05-23T13:00:13.178Z,22.80
2023-05-23T13:02:40.331Z,23.10
2023-05-23T13:05:07.605Z,23.40
2023-05-23T13:07:34.712Z,23.10
2023-05-23T13:10:01.846Z,23.00
2023-05-23T13:12:28.897Z,22.70
2023-05-23T13:14:55.705Z,22.50
2023-05-23T13:17:22.900Z,22.40
2023-05-23T13:19:49.716Z,22.30
2023-05-23T13:22:16.710Z,22.30
2023-05-23T13:24:43.970Z,22.40
2023-05-23T13:27:10.894Z,22.60
2023-05-23T13:29:37.691Z,22.60
2023-05-23T13:32:04.622Z,22.50
2023-05-23T13:34:31.531Z,22.40
2023-05-23T13:36:58.347Z,22.40
2023-05-23T13:39:25.267Z,22.30
2023-05-23T13:41:52.057Z,22.30
2023-05-23T13:44:18.900Z,22.30
2023-05-23T13:46:45.892Z,22.20
2023-05-23T13:49:12.728Z,22.30
2023-05-23T13:51:40.070Z,22.20
2023-05-23T13:54:07.216Z,22.30
2023-05-23T13:56:34.131Z,22.30
2023-05-23T13:59:01.305Z,22.30
2023-05-23T14:01:28.713Z,22.20
2023-05-23T14:03:55.563Z,22.20
2023-05-23T14:06:22.417Z,22.20
2023-05-23T14:08:49.371Z,22.20
2023-05-23T14:11:16.192Z,22.40
2023-05-23T14:13:43.037Z,22.60
2023-05-23T14:16:10.078Z,22.90
2023-05-23T14:18:36.920Z,22.70
2023-05-23T14:21:03.893Z,22.60
2023-05-23T14:23:31.055Z,22.50
2023-05-23T14:25:57.903Z,22.40
2023-05-23T14:28:24.749Z,22.70
2023-05-23T14:30:51.656Z,23.20
2023-05-23T14:33:19.183Z,23.40
2023-05-23T14:35:46.414Z,23.60
2023-05-23T14:38:13.350Z,23.70
2023-05-23T14:40:40.162Z,23.50
2023-05-23T14:43:07.766Z,23.30
2023-05-23T14:45:34.694Z,23.60
2023-05-23T14:48:02.442Z,23.60
2023-05-23T14:50:29.300Z,23.60
2023-05-23T14:52:56.328Z,23.20
2023-05-23T14:55:23.180Z,23.00
2023-05-23T14:57:50.025Z,22.90
2023-05-23T15:00:17.573Z,23.00
2023-05-23T15:02:44.459Z,22.80
2023-05-23T15:05:11.547Z,22.70
2023-05-23T15:07:38.893Z,23.10
2023-05-23T15:10:06.794Z,23.10
2023-05-23T15:12:33.681Z,23.30
2023-05-23T15:15:04.166Z,23.30
2023-05-23T15:17:32.566Z,23.10
2023-05-23T15:19:59.580Z,22.90
2023-05-23T15:24:58.439Z,22.70
2023-05-23T15:27:25.371Z,22.70
2023-05-23T15:29:52.365Z,22.80
2023-05-23T15:32:19.299Z,22.80
2023-05-23T15:34:46.265Z,23.20
2023-05-23T15:37:13.189Z,23.50
2023-05-23T15:39:39.970Z,23.60
2023-05-23T15:42:06.845Z,23.60
2023-05-23T15:44:33.696Z,23.90
2023-05-23T15:47:00.526Z,23.90
2023-05-23T15:49:27.542Z,24.00
2023-05-23T15:51:55.640Z,23.60
2023-05-23T15:54:22.648Z,23.30
2023-05-23T15:56:49.481Z,23.50
2023-05-23T15:59:18.846Z,23.70
2023-05-23T16:01:45.704Z,23.80
2023-05-23T16:04:12.637Z,23.90
2023-05-23T16:06:39.518Z,23.80
2023-05-23T16:09:06.365Z,23.40
2023-05-23T16:11:33.185Z,23.00
2023-05-23T16:14:00.049Z,23.30
2023-05-23T16:16:26.819Z,23.60
2023-05-23T16:18:53.823Z,23.90
2023-05-23T16:21:21.000Z,24.30
2023-05-23T16:23:48.489Z,24.50
2023-05-23T16:26:16.362Z,24.50
2023-05-23T16:28:43.760Z,24.00
2023-05-23T16:31:14.026Z,23.50
2023-05-23T16:33:41.067Z,23.20
2023-05-23T16:36:08.118Z,23.00
2023-05-23T16:38:34.966Z,22.80
2023-05-23T16:41:01.813Z,22.70
2023-05-23T16:43:28.719Z,22.60
2023-05-23T16:45:55.726Z,22.60
2023-05-23T16:48:22.676Z,22.50
2023-05-23T16:50:49.716Z,22.40
2023-05-23T16:53:16.493Z,22.40
2023-05-23T16:55:43.592Z,22.40
2023-05-23T16:58:12.347Z,22.30
2023-05-23T17:00:39.735Z,22.30
2023-05-23T17:03:07.338Z,22.30
2023-05-23T17:05:34.519Z,22.20
2023-05-23T17:08:01.433Z,22.20
2023-05-23T17:10:28.248Z,22.20
2023-05-23T17:12:55.219Z,22.20
2023-05-23T17:15:22.079Z,22.20
2023-05-23T17:17:49.069Z,22.10
2023-05-23T17:20:16.146Z,22.10
2023-05-23T17:22:42.978Z,22.10
2023-05-23T17:25:10.713Z,22.10
2023-05-23T17:27:37.920Z,22.10
2023-05-23T17:30:05.204Z,22.10
2023-05-23T17:32:32.114Z,22.10
2023-05-23T17:34:59.157Z,22.10
2023-05-23T17:37:26.541Z,22.10
2023-05-23T17:39:55.962Z,22.10
2023-05-23T17:42:25.007Z,22.10
2023-05-23T17:44:51.797Z,22.10
2023-05-23T17:47:18.611Z,22.10
2023-05-23T17:49:45.531Z,22.00
2023-05-23T17:52:14.902Z,22.00
2023-05-23T17:54:41.957Z,22.00
2023-05-23T17:57:08.936Z,22.00
2023-05-23T17:59:35.843Z,21.90
2023-05-23T18:02:04.840Z,21.90
2023-05-23T18:04:31.921Z,21.90
2023-05-23T18:06:58.984Z,21.90
2023-05-23T18:09:25.816Z,21.90
2023-05-23T18:11:52.877Z,21.90
2023-05-23T18:14:19.862Z,21.90
2023-05-23T18:16:47.520Z,21.90
2023-05-23T18:19:14.454Z,21.90
2023-05-23T18:21:41.669Z,21.80
2023-05-23T18:24:11.682Z,21.80
2023-05-23T18:26:43.330Z,21.80
2023-05-23T18:29:10.262Z,21.80
2023-05-23T18:31:37.427Z,21.80
2023-05-23T18:34:04.675Z,21.80
2023-05-23T18:36:31.848Z,21.80
2023-05-23T18:38:58.737Z,21.80
2023-05-23T18:41:28.150Z,21.80
2023-05-23T18:43:55.077Z,21.80
2023-05-23T18:46:24.155Z,21.80
2023-05-23T18:48:51.637Z,21.80
2023-05-23T18:51:18.547Z,21.70
2023-05-23T18:53:45.510Z,21.70
2023-05-23T18:56:12.410Z,21.70
2023-05-23T18:58:39.253Z,21.70
2023-05-23T19:01:07.037Z,21.70
2023-05-23T19:03:37.459Z,21.70
2023-05-23T19:06:04.505Z,21.70
2023-05-23T19:08:31.874Z,21.70
2023-05-23T19:10:59.096Z,21.70
2023-05-23T19:13:26.396Z,21.70
2023-05-23T19:15:53.392Z,21.70
2023-05-23T19:18:20.663Z,21.70
2023-05-23T19:20:51.790Z,21.70
2023-05-23T19:23:21.552Z,21.70
2023-05-23T19:25:48.717Z,21.70
2023-05-23T19:28:15.617Z,21.70
2023-05-23T19:30:44.074Z,21.70
2023-05-23T19:33:11.529Z,21.70
2023-05-23T19:35:38.594Z,21.70
2023-05-23T19:38:06.033Z,21.70
2023-05-23T19:40:32.879Z,21.60
2023-05-23T19:42:59.719Z,21.60
2023-05-23T19:45:27.072Z,21.60
2023-05-23T19:47:53.890Z,21.60
2023-05-23T19:50:22.157Z,21.60
2023-05-23T19:52:49.006Z,21.60
2023-05-23T19:55:16.056Z,21.60
2023-05-23T19:57:42.905Z,21.60
2023-05-23T20:00:10.568Z,21.60
2023-05-23T20:02:37.452Z,21.60
2023-05-23T20:05:04.537Z,21.60
2023-05-23T20:07:31.383Z,21.60
2023-05-23T20:09:58.209Z,21.60
2023-05-23T20:12:25.026Z,21.60
2023-05-23T20:14:51.965Z,21.60
2023-05-23T20:17:18.756Z,21.70
2023-05-23T20:19:45.587Z,21.60
2023-05-23T20:22:12.471Z,21.60
2023-05-23T20:24:39.386Z,21.60
2023-05-23T20:27:07.061Z,21.60
2023-05-23T20:29:35.117Z,21.60
2023-05-23T20:32:02.294Z,21.60
2023-05-23T20:34:29.113Z,21.50
2023-05-23T20:36:56.136Z,21.60
2023-05-23T20:39:24.100Z,21.50
2023-05-23T20:41:50.921Z,21.50
2023-05-23T20:44:18.556Z,21.50
2023-05-23T20:46:45.696Z,21.50
2023-05-23T20:49:12.537Z,21.50
2023-05-23T20:51:39.543Z,21.50
2023-05-23T20:54:06.552Z,21.50
2023-05-23T20:56:33.513Z,21.50
2023-05-23T20:59:03.428Z,21.50
2023-05-23T21:01:30.537Z,21.50
2023-05-23T21:03:57.637Z,21.40
2023-05-23T21:06:24.514Z,21.40
2023-05-23T21:08:51.352Z,21.40
2023-05-23T21:11:18.205Z,21.30
2023-05-23T21:13:45.186Z,21.30
2023-05-23T21:16:14.636Z,21.30
2023-05-23T21:18:41.734Z,21.30
2023-05-23T21:21:08.676Z,21.30
2023-05-23T21:23:35.527Z,21.40
2023-05-23T21:26:02.446Z,21.40
2023-05-23T21:28:29.532Z,21.40
2023-05-23T21:30:56.933Z,21.30
2023-05-23T21:33:23.788Z,21.30
2023-05-23T21:35:51.362Z,21.30
2023-05-23T21:38:18.215Z,21.40
2023-05-23T21:40:45.164Z,21.30
2023-05-23T21:43:12.166Z,21.30
2023-05-23T21:45:39.096Z,21.30
2023-05-23T21:48:06.207Z,21.30
2023-05-23T21:50:33.168Z,21.30
2023-05-23T21:52:59.958Z,21.30
2023-05-23T21:55:27.358Z,21.30
2023-05-23T21:57:54.258Z,21.20
2023-05-23T22:00:22.793Z,21.20
2023-05-23T22:02:49.796Z,21.20
2023-05-23T22:05:16.799Z,21.20
2023-05-23T22:07:43.585Z,21.20
2023-05-23T22:10:10.847Z,21.10
2023-05-23T22:12:37.874Z,20.90
2023-05-23T22:15:05.251Z,21.00
2023-05-23T22:17:34.203Z,20.90
2023-05-23T22:20:02.536Z,20.80
2023-05-23T22:22:29.379Z,20.80
2023-05-23T22:24:56.299Z,20.90
2023-05-23T22:27:23.367Z,21.00
2023-05-23T22:29:50.644Z,21.00
2023-05-23T22:32:17.578Z,21.10
2023-05-23T22:34:45.638Z,21.10
2023-05-23T22:37:12.491Z,21.20
2023-05-23T22:39:39.233Z,21.20
2023-05-23T22:42:06.078Z,21.20
2023-05-23T22:44:32.900Z,21.30
2023-05-23T22:47:00.115Z,21.30
2023-05-23T22:49:30.387Z,21.20
2023-05-23T22:51:57.751Z,21.20
2023-05-23T22:54:24.789Z,21.20
2023-05-23T22:56:51.864Z,21.10
2023-05-23T22:59:18.606Z,21.10
2023-05-23T23:01:46.474Z,21.00
2023-05-23T23:04:13.537Z,21.00
2023-05-23T23:06:43.177Z,21.10
2023-05-23T23:09:10.167Z,21.10
2023-05-23T23:11:37.094Z,21.20
2023-05-23T23:14:04.030Z,21.20
2023-05-23T23:16:31.104Z,21.20
2023-05-23T23:18:58.983Z,21.20
2023-05-23T23:21:25.975Z,21.30
2023-05-23T23:23:52.916Z,21.40
2023-05-23T23:26:19.869Z,21.30
2023-05-23T23:28:46.653Z,21.20
2023-05-23T23:31:13.469Z,21.20
2023-05-23T23:33:40.453Z,21.20
2023-05-23T23:36:07.330Z,21.30
2023-05-23T23:38:34.164Z,21.30
2023-05-23T23:41:01.144Z,21.30
2023-05-23T23:43:27.987Z,21.20
2023-05-23T23:45:54.895Z,21.20
2023-05-23T23:48:21.856Z,21.20
2023-05-23T23:50:48.806Z,21.20
2023-05-23T23:53:16.906Z,21.20
2023-05-23T23:55:43.824Z,21.20
2023-05-23T23:58:10.580Z,21.30
